Thursday, July 19, 2018, 1:20 PM EDT
Back to Local

KGKJ, Port Meadville Airport

Location: Meadville, PA, United States Lat: 41.633
Local Time: 1:20 PM EDT (17:20 GMT) Lon: -80.217
Time Zone: US/Eastern Elev: 1400 ft

Show me the last for .
Show Decoded

2018-07-19 12:53 METAR KGKJ 191653Z AUTO VRB04KT 10SM CLR 23/11 A3014 RMK AO2 SLP199 T02330106 =
2018-07-19 11:53 METAR KGKJ 191553Z AUTO VRB03KT 10SM CLR 23/11 A3014 RMK AO2 SLP202 T02280111 =
2018-07-19 10:53 METAR KGKJ 191453Z AUTO VRB04KT 10SM FEW043 22/12 A3015 RMK AO2 SLP203 T02220122
                 50007 =
2018-07-19 09:53 METAR KGKJ 191353Z AUTO 10004KT 10SM CLR 21/14 A3015 RMK AO2 SLP203 T02060139 =
2018-07-19 08:53 METAR KGKJ 191253Z AUTO 17004KT 10SM CLR 19/15 A3014 RMK AO2 SLP202 T01890150 =
2018-07-19 07:53 METAR KGKJ 191153Z AUTO 10003KT 10SM CLR 17/14 A3013 RMK AO2 SLP195 T01670144
                 10167 20117 50004 =
2018-07-19 06:53 METAR KGKJ 191053Z AUTO 00000KT 10SM CLR 12/12 A3013 RMK AO2 SLP198 T01220117 =
2018-07-19 05:53 METAR KGKJ 190953Z AUTO 09003KT 10SM CLR 13/12 A3012 RMK AO2 SLP196 T01280122 =
2018-07-19 04:53 METAR KGKJ 190853Z AUTO 00000KT 10SM CLR 12/12 A3012 RMK AO2 SLP193 T01220117
                 53003 =
2018-07-19 03:53 METAR KGKJ 190753Z AUTO 00000KT 10SM CLR 14/13 A3011 RMK AO2 SLP189 T01440128 =
2018-07-19 02:53 METAR KGKJ 190653Z AUTO 00000KT 10SM CLR 14/13 A3010 RMK AO2 SLP187 T01440128 =
2018-07-19 01:53 METAR KGKJ 190553Z AUTO 00000KT 10SM CLR 14/12 A3011 RMK AO2 SLP189 T01440122
                 10211 20144 50004 =
2018-07-19 00:53 METAR KGKJ 190453Z AUTO 00000KT 10SM CLR 16/13 A3011 RMK AO2 SLP190 T01560128
                 402440139 =
2018-07-18 23:53 METAR KGKJ 190353Z AUTO 00000KT 10SM CLR 16/13 A3011 RMK AO2 SLP189 T01560128 =
2018-07-18 22:53 METAR KGKJ 190253Z AUTO 03004KT 10SM CLR 16/13 A3009 RMK AO2 SLP184 T01610128
                 53008 =
2018-07-18 21:53 METAR KGKJ 190153Z AUTO 36003KT 10SM CLR 18/12 A3009 RMK AO2 SLP183 T01780122 =
2018-07-18 20:53 METAR KGKJ 190053Z AUTO 36003KT 10SM CLR 19/12 A3007 RMK AO2 SLP178 T01890117 =
2018-07-18 19:53 METAR KGKJ 182353Z AUTO 35005KT 10SM CLR 21/12 A3007 RMK AO2 SLP176 T02110122
                 10244 20211 53002 =
2018-07-18 18:53 METAR KGKJ 182253Z AUTO 34007KT 10SM CLR 22/13 A3007 RMK AO2 SLP176 T02220128 =
2018-07-18 17:53 METAR KGKJ 182153Z AUTO 36007KT 10SM CLR 23/13 A3006 RMK AO2 SLP174 T02280133 =
2018-07-18 16:53 METAR KGKJ 182053Z AUTO VRB06KT 10SM CLR 24/15 A3006 RMK AO2 SLP174 T02390150
                 58007 =
2018-07-18 15:53 METAR KGKJ 181953Z AUTO 35006KT 10SM FEW042 24/15 A3007 RMK AO2 SLP176 T02390150
                 =
2018-07-18 14:53 METAR KGKJ 181853Z AUTO 02007KT 10SM FEW041 SCT060 24/15 A3008 RMK AO2 SLP179
                 T02440150 =
2018-07-18 13:53 METAR KGKJ 181753Z AUTO 03008KT 10SM SCT037 23/15 A3009 RMK AO2 SLP181 T02280150
                 10239 20172 58005 =

Support USWX by starting your Amazon purchase here.